Latest Weather Observations for Gingin Airport

IDW60801

Issued at 7:33 am WST Saturday 29 April 2017 (issued every 30 minutes, with the page automatically refreshed every 10 minutes)

About weather observations | Map of weather stations | Latest weather observations for WA | Other Formats
Station Details ID: 009178 Name: GINGIN AERO Lat: -31.46 Lon: 115.86 Height: 73.0 m
Data from the previous 72 hours. | See also: Recent months at Gingin Airport
Date/Time
WST
Temp
°C
App
Temp
°C
Dew
Point
°C
Rel
Hum
%
Delta-T
°C
Wind Press
QNH
hPa
Press
MSL
hPa
Rain since
9am
mm
Dir  Spd
km/h
Gust
km/h
Spd
kts
Gust
kts
29/07:30am 7.5 5.1 4.3 80 1.4 SE 6 7 3 4 1024.0 1023.8 0.0
29/07:00am 5.4 2.5 2.6 82 1.1 SE 7 9 4 5 1024.1 1023.9 0.0
29/06:30am 5.5 2.8 2.5 81 1.2 SE 6 7 3 4 1023.9 1023.7 0.0
29/06:00am 6.5 3.9 3.1 79 1.4 SE 6 7 3 4 1023.8 1023.6 0.0
29/05:30am 6.7 4.0 3.5 80 1.4 SE 7 9 4 5 1023.6 1023.4 0.0
29/05:00am 6.7 3.2 3.7 81 1.3 SSE 11 11 6 6 1023.5 1023.3 0.0
29/04:30am 7.1 4.6 4.6 84 1.1 SSE 7 9 4 5 1023.6 1023.4 0.0
29/04:00am 7.1 4.7 4.4 83 1.2 SE 6 7 3 4 1023.5 1023.3 0.0
29/03:30am 7.0 5.6 3.8 80 1.4 CALM 0 0 0 0 1023.2 1023.0 0.0
29/03:00am 7.9 5.6 5.0 82 1.3 SE 6 6 3 3 1023.5 1023.3 0.0
29/02:30am 7.6 5.2 4.4 80 1.4 SE 6 7 3 4 1023.5 1023.3 0.0
29/02:00am 9.7 7.8 6.6 81 1.4 S 6 7 3 4 1023.7 1023.5 0.0
29/01:30am 9.5 7.3 6.4 81 1.4 S 7 9 4 5 1023.6 1023.4 0.0
29/01:00am 9.5 7.5 6.9 84 1.2 S 7 7 4 4 1023.6 1023.4 0.0
29/12:30am 8.9 6.7 6.0 82 1.3 S 7 9 4 5 1023.6 1023.4 0.0
29/12:00am 9.2 7.2 6.1 81 1.4 SE 6 6 3 3 1023.8 1023.6 0.0
 
Date/Time
WST
Temp
°C
App
Temp
°C
Dew
Point
°C
Rel
Hum
%
Delta-T
°C
Wind Press
QNH
hPa
Press
MSL
hPa
Rain since
9am
mm
Dir  Spd
km/h
Gust
km/h
Spd
kts
Gust
kts
28/11:30pm 10.8 8.9 7.5 80 1.6 SSE 7 7 4 4 1024.0 1023.8 0.0
28/11:00pm 10.2 8.0 5.4 72 2.2 SSE 6 7 3 4 1024.3 1024.1 0.0
28/10:30pm 12.2 10.4 7.9 75 2.1 SSE 7 9 4 5 1024.5 1024.3 0.0
28/10:00pm 12.5 10.4 8.2 75 2.1 SSE 9 11 5 6 1024.7 1024.5 0.0
28/09:30pm 13.0 10.9 8.3 73 2.3 S 9 13 5 7 1024.6 1024.4 0.0
28/09:00pm 12.1 10.0 6.8 70 2.5 S 7 9 4 5 1024.5 1024.3 0.0
28/08:30pm 13.4 11.7 7.6 68 2.9 SSE 6 7 3 4 1024.6 1024.4 0.0
28/08:00pm 15.8 13.9 9.2 65 3.4 SSE 9 11 5 6 1024.5 1024.3 0.0
28/07:30pm 16.8 15.1 9.7 63 3.7 S 9 13 5 7 1024.4 1024.2 0.0
28/07:00pm 17.8 15.7 9.9 60 4.2 S 11 13 6 7 1024.1 1023.9 0.0
28/06:30pm 19.0 17.2 9.5 54 5.0 S 9 13 5 7 1024.0 1023.8 0.0
28/06:00pm 20.4 18.6 9.3 49 5.9 SE 9 15 5 8 1023.7 1023.5 0.0
28/05:30pm 22.1 19.4 8.9 43 7.0 S 13 19 7 10 1023.4 1023.2 0.0
28/05:00pm 24.5 20.3 3.8 26 10.2 E 15 20 8 11 1023.0 1022.8 0.0
28/04:30pm 24.8 19.8 3.5 25 10.5 ESE 19 24 10 13 1023.0 1022.8 0.0
28/04:00pm 25.3 20.6 3.3 24 10.8 E 17 26 9 14 1023.1 1022.9 0.0
28/03:30pm 25.5 20.3 3.5 24 10.9 E 20 33 11 18 1022.9 1022.7 0.0
28/03:00pm 25.7 20.6 4.2 25 10.7 E 20 30 11 16 1022.9 1022.7 0.0
28/02:30pm 25.8 21.7 4.3 25 10.8 ESE 15 30 8 16 1022.8 1022.6 0.0
28/02:00pm 25.0 20.5 4.2 26 10.3 ESE 17 28 9 15 1022.9 1022.7 0.0
28/01:30pm 25.4 20.4 4.5 26 10.5 E 20 33 11 18 1023.2 1023.0 0.0
28/01:00pm 25.4 20.5 5.1 27 10.3 ESE 20 35 11 19 1023.7 1023.5 0.0
28/12:30pm 25.6 20.3 5.2 27 10.4 ESE 22 32 12 17 1024.1 1023.9 0.0
28/12:00pm 24.7 20.5 5.5 29 9.7 ESE 17 28 9 15 1024.7 1024.5 0.0
28/11:30am 24.3 21.1 5.1 29 9.7 ESE 11 20 6 11 1025.2 1025.0 0.0
28/11:00am 23.8 21.0 5.2 30 9.3 E 9 17 5 9 1025.6 1025.4 0.0
28/10:30am 23.4 20.9 4.9 30 9.2 ENE 7 13 4 7 1025.9 1025.7 0.0
28/10:00am 22.2 19.5 5.6 34 8.3 ENE 9 15 5 8 1026.1 1025.9 0.0
28/09:30am 21.0 18.8 6.2 38 7.5 ENE 7 9 4 5 1026.2 1026.0 0.0
28/09:00am 19.3 17.3 6.4 43 6.4 ESE 6 9 3 5 1026.3 1026.1 0.0
28/08:30am 16.8 14.7 6.6 51 5.0 ESE 7 9 4 5 1026.3 1026.1 0.0
28/08:00am 13.0 12.4 7.5 69 2.7 CALM 0 0 0 0 1026.2 1026.0 0.0
28/07:59am 12.8 12.3 7.7 71 2.5 CALM 0 0 0 0 1026.2 1026.0 0.0
28/07:30am 7.8 6.7 4.9 82 1.3 CALM 0 0 0 0 1025.9 1025.7 0.0
28/07:00am 5.2 2.5 2.7 84 1.0 ESE 6 7 3 4 1025.7 1025.5 0.0
28/06:30am 5.5 2.7 3.0 84 1.0 ESE 7 9 4 5 1025.5 1025.3 0.0
28/06:00am 6.1 4.7 3.8 85 1.0 CALM 0 7 0 4 1025.5 1025.3 0.0
28/05:30am 5.6 4.2 3.3 85 1.0 CALM 0 0 0 0 1025.4 1025.2 0.0
28/05:00am 6.3 4.1 3.6 83 1.1 ESE 4 7 2 4 1025.2 1025.0 0.0
28/04:30am 6.0 3.5 3.5 84 1.1 ESE 6 7 3 4 1025.0 1024.8 0.0
28/04:00am 6.6 4.5 3.8 82 1.2 ESE 4 7 2 4 1024.8 1024.6 0.0
28/03:30am 7.1 5.1 4.2 82 1.3 ESE 4 7 2 4 1024.6 1024.4 0.0
28/03:00am 7.0 5.8 4.5 84 1.1 CALM 0 0 0 0 1024.8 1024.6 0.0
28/02:30am 7.1 5.9 4.4 83 1.2 CALM 0 0 0 0 1024.8 1024.6 0.0
28/02:00am 7.4 5.4 4.2 80 1.4 ESE 4 7 2 4 1024.8 1024.6 0.0
28/01:30am 8.2 6.0 5.3 82 1.3 ESE 6 7 3 4 1024.8 1024.6 0.0
28/01:00am 7.9 5.4 4.8 81 1.4 ESE 7 7 4 4 1024.9 1024.7 0.0
28/12:30am 8.7 7.6 5.1 78 1.6 CALM 0 0 0 0 1025.2 1025.0 0.0
28/12:00am 9.5 8.5 5.7 77 1.7 CALM 0 0 0 0 1025.1 1024.9 0.0
 
Date/Time
WST
Temp
°C
App
Temp
°C
Dew
Point
°C
Rel
Hum
%
Delta-T
°C
Wind Press
QNH
hPa
Press
MSL
hPa
Rain since
9am
mm
Dir  Spd
km/h
Gust
km/h
Spd
kts
Gust
kts
27/11:30pm 10.6 9.8 6.7 77 1.8 CALM 0 6 0 3 1025.3 1025.1 0.0
27/11:00pm 10.1 8.0 5.7 74 2.0 ESE 6 7 3 4 1025.5 1025.3 0.0
27/10:30pm 13.0 10.9 8.1 72 2.4 ESE 9 11 5 6 1025.5 1025.3 0.0
27/10:00pm 11.4 9.0 6.9 74 2.1 ESE 9 9 5 5 1025.6 1025.4 0.0
27/09:30pm 11.6 9.4 6.3 70 2.5 ESE 7 11 4 6 1025.4 1025.2 0.0
27/09:00pm 15.1 13.5 8.8 66 3.2 SSE 7 9 4 5 1025.2 1025.0 0.0
27/08:30pm 15.8 14.4 9.5 66 3.3 S 7 7 4 4 1025.0 1024.8 0.0
27/08:00pm 16.4 14.7 9.8 65 3.4 SSW 9 11 5 6 1024.9 1024.7 0.0
27/07:30pm 17.3 15.6 10.0 62 3.9 SSW 9 9 5 5 1024.9 1024.7 0.0
27/07:00pm 18.1 16.4 10.0 59 4.3 SSW 9 13 5 7 1024.6 1024.4 0.0
27/06:30pm 19.1 16.6 9.6 54 5.0 SSW 13 15 7 8 1024.4 1024.2 0.0
27/06:00pm 20.1 17.1 9.1 49 5.8 SSW 15 20 8 11 1024.1 1023.9 0.0
27/05:30pm 21.8 17.6 7.6 40 7.4 SSW 19 22 10 12 1023.8 1023.6 0.0
27/05:00pm 23.2 19.3 7.3 36 8.3 SW 17 24 9 13 1023.7 1023.5 0.0
27/04:30pm 23.8 19.3 7.0 34 8.8 SW 20 30 11 16 1023.5 1023.3 0.0
27/04:00pm 24.1 18.8 6.8 33 9.0 SSW 24 32 13 17 1023.4 1023.2 0.0
27/03:30pm 25.5 21.0 7.1 31 9.7 SW 20 28 11 15 1023.3 1023.1 0.0
27/03:00pm 25.6 21.6 6.8 30 9.8 SSW 17 26 9 14 1023.1 1022.9 0.0
27/02:30pm 26.0 21.1 7.1 30 10.0 SW 22 32 12 17 1023.1 1022.9 0.0
27/02:00pm 27.1 24.9 5.4 25 11.2 E 6 11 3 6 1023.4 1023.2 0.0
27/01:30pm 25.9 22.8 5.5 27 10.5 S 11 19 6 10 1023.7 1023.5 0.0
27/01:00pm 26.4 24.3 5.9 27 10.6 WSW 6 13 3 7 1024.2 1024.0 0.0
27/12:30pm 26.1 23.9 6.2 28 10.4 W 7 15 4 8 1024.7 1024.5 0.0
27/12:00pm 24.8 22.8 6.1 30 9.6 WSW 6 9 3 5 1025.2 1025.0 0.0
27/11:30am 25.0 22.5 6.7 31 9.5 N 9 19 5 10 1025.6 1025.4 0.0
27/11:00am 24.3 21.5 7.0 33 9.0 N 11 19 6 10 1026.1 1025.9 0.0
27/10:30am 23.4 20.6 7.1 35 8.5 N 11 17 6 9 1026.4 1026.2 0.0
27/10:00am 22.7 20.0 7.3 37 8.0 NNE 11 15 6 8 1026.6 1026.4 0.0
27/09:30am 21.4 18.3 7.3 40 7.3 NNE 13 17 7 9 1027.0 1026.8 0.0
27/09:00am 20.2 18.3 7.6 44 6.5 ENE 7 9 4 5 1027.0 1026.8 0.0
27/08:30am 18.1 15.8 7.5 50 5.4 ENE 9 13 5 7 1027.0 1026.8 0.0
27/08:00am 16.2 13.1 7.4 56 4.4 ENE 13 15 7 8 1026.8 1026.6 0.0
27/07:30am 13.6 10.0 8.4 71 2.6 ENE 17 19 9 10 1026.5 1026.3 0.0
27/07:24am 12.0 9.2 8.5 79 1.7 E 13 17 7 9 1026.5 1026.3 0.0
27/07:00am 7.0 4.6 4.3 83 1.2 ESE 6 7 3 4 1026.3 1026.1 0.0
27/06:30am 7.7 5.2 4.8 82 1.3 ESE 7 9 4 5 1026.2 1026.0 0.0
27/06:00am 7.4 5.1 4.7 83 1.2 ESE 6 9 3 5 1026.1 1025.9 0.0
27/05:30am 7.5 5.3 5.3 86 1.0 ESE 6 11 3 6 1026.0 1025.8 0.0
27/05:00am 7.2 5.2 4.5 83 1.2 S 4 7 2 4 1025.9 1025.7 0.0
27/04:30am 6.2 4.0 3.4 82 1.2 S 4 6 2 3 1026.0 1025.8 0.0
27/04:00am 7.4 4.7 3.8 78 1.5 S 7 7 4 4 1025.6 1025.4 0.0
27/03:30am 9.5 6.9 6.0 79 1.6 SSE 9 9 5 5 1025.4 1025.2 0.0
27/03:00am 9.3 6.8 6.4 82 1.3 S 9 9 5 5 1025.5 1025.3 0.0
27/02:30am 9.0 6.9 6.6 85 1.1 SSE 7 9 4 5 1025.5 1025.3 0.0
27/02:00am 9.2 7.2 6.3 82 1.3 SSE 6 7 3 4 1025.4 1025.2 0.0
27/01:30am 10.8 9.1 8.2 84 1.3 SSE 7 7 4 4 1025.4 1025.2 0.0
27/01:00am 10.9 9.3 8.1 83 1.4 SSE 6 7 3 4 1025.4 1025.2 0.0
27/12:30am 11.0 10.3 8.6 85 1.2 SE 2 7 1 4 1025.5 1025.3 0.0
27/12:00am 11.7 10.1 8.9 83 1.4 SE 7 9 4 5 1025.5 1025.3 0.0
 
Date/Time
WST
Temp
°C
App
Temp
°C
Dew
Point
°C
Rel
Hum
%
Delta-T
°C
Wind Press
QNH
hPa
Press
MSL
hPa
Rain since
9am
mm
Dir  Spd
km/h
Gust
km/h
Spd
kts
Gust
kts
26/11:30pm 10.7 9.4 7.6 81 1.5 SSE 4 7 2 4 1025.6 1025.4 0.0
26/11:00pm 12.3 10.2 8.4 77 1.9 SSE 9 9 5 5 1025.8 1025.6 0.0
26/10:30pm 13.2 11.3 8.9 75 2.2 SSE 9 11 5 6 1025.9 1025.7 0.0
26/10:00pm 13.7 11.7 8.7 72 2.5 SE 9 11 5 6 1025.8 1025.6 0.0
26/09:30pm 14.5 12.7 9.3 71 2.7 SSE 9 9 5 5 1025.9 1025.7 0.0
26/09:00pm 15.0 13.2 9.4 69 2.9 SSE 9 11 5 6 1025.8 1025.6 0.0
26/08:30pm 15.6 13.4 9.5 67 3.2 SSE 11 13 6 7 1025.7 1025.5 0.0
26/08:00pm 15.8 13.9 9.2 65 3.4 S 9 11 5 6 1025.5 1025.3 0.0
26/07:30pm 16.8 15.0 9.5 62 3.8 S 9 11 5 6 1025.3 1025.1 0.0
26/07:00pm 17.8 15.6 9.4 58 4.4 S 11 13 6 7 1025.1 1024.9 0.0
26/06:30pm 18.9 16.8 9.7 55 4.9 SSW 11 13 6 7 1024.7 1024.5 0.0
26/06:00pm 20.1 17.7 9.9 52 5.5 SSW 13 17 7 9 1024.4 1024.2 0.0
26/05:30pm 21.3 18.0 9.5 47 6.3 SSW 17 20 9 11 1024.2 1024.0 0.0
26/05:00pm 22.4 17.9 9.9 45 6.8 SSW 24 30 13 16 1024.1 1023.9 0.0
26/04:30pm 23.1 19.0 10.2 44 7.1 SSW 22 30 12 16 1024.0 1023.8 0.0
26/04:00pm 24.3 19.4 8.3 36 8.5 SSW 24 32 13 17 1023.9 1023.7 0.0
26/03:30pm 25.4 20.9 8.4 34 9.2 SW 22 30 12 16 1023.9 1023.7 0.0
26/03:00pm 26.8 24.6 5.1 25 11.1 SE 6 11 3 6 1023.8 1023.6 0.0
26/02:30pm 26.9 24.6 5.8 26 11.0 WNW 7 20 4 11 1023.9 1023.7 0.0
26/02:00pm 26.1 24.0 5.7 27 10.5 SW 6 11 3 6 1024.0 1023.8 0.0
26/01:30pm 26.2 23.9 5.7 27 10.6 NE 7 15 4 8 1024.2 1024.0 0.0
26/01:00pm 25.4 23.1 5.6 28 10.1 N 7 15 4 8 1024.6 1024.4 0.0
26/12:30pm 25.1 22.5 6.3 30 9.7 E 9 15 5 8 1025.1 1024.9 0.0
26/12:00pm 25.4 23.5 7.5 32 9.4 ESE 7 13 4 7 1025.6 1025.4 0.0
26/11:30am 24.5 21.8 7.2 33 9.1 ENE 11 17 6 9 1026.1 1025.9 0.0
26/11:00am 23.6 21.4 7.7 36 8.3 ENE 9 17 5 9 1026.6 1026.4 0.0
26/10:30am 22.8 19.8 7.8 38 7.9 NE 13 19 7 10 1026.8 1026.6 0.0
26/10:00am 21.7 18.1 8.2 42 7.1 ENE 17 22 9 12 1026.9 1026.7 0.0
26/09:30am 20.1 17.4 8.8 48 6.0 E 13 19 7 10 1027.2 1027.0 0.0
26/09:00am 17.6 15.6 8.5 55 4.7 SE 9 13 5 7 1027.3 1027.1 0.0
26/08:30am 15.2 13.1 8.4 64 3.4 SSE 9 11 5 6 1027.3 1027.1 0.0
26/08:00am 12.2 10.3 8.9 80 1.6 SSE 9 13 5 7 1027.1 1026.9 0.0

Other Formats:

Comma delimited format used in spreadsheet applications
http://www.bom.gov.au/fwo/IDW60801/IDW60801.95612.axf

JavaScript Object Notation format (JSON) in row-major order
http://www.bom.gov.au/fwo/IDW60801/IDW60801.95612.json